Weather at Nakuru Airport

Public forecast

Using degrees Celsius for public forecast. Weather courtesy of forecast.io.

Current aviation weather report (METAR) for Nakuru Airport

2024/04/12 16:00 (retrieved 54 minutes ago)

HKNK 121600Z 00000KT 9999 SCT020 20/16

Closest aviation forecast (TAF) to Nakuru Airport

Forecast is more than 6 hours old.

Closest forecast is Eldoret International Airport, 69.5 nm (128.7 km) NW.

2024/04/12 06:54 (retrieved 10 hours ago)

TAF TAF HKEL 120500Z 1206/1312 12010KT 9999 FEW024CB SCT025 TEMPO 1213/1217 -TSRA FEW020CB SCT021 BKN080 BECMG 1220/1223 18005KT NSW SCT018 BKN080 BECMG 1306/1309 09010KT BKN022